sensor_id;sensor_type;location;lat;lon;timestamp;pressure;altitude;pressure_sealevel;temperature;humidity
46095;BME280;31832;50.746;-2.716;2024-01-15T00:00:30;160789.72;;;6.38;100.00
46095;BME280;31832;50.746;-2.716;2024-01-15T00:02:54;160658.16;;;6.13;100.00
46095;BME280;31832;50.746;-2.716;2024-01-15T00:05:20;160396.50;;;4.69;100.00
46095;BME280;31832;50.746;-2.716;2024-01-15T00:07:46;160626.77;;;5.72;100.00
46095;BME280;31832;50.746;-2.716;2024-01-15T00:10:11;160399.49;;;4.70;100.00
46095;BME280;31832;50.746;-2.716;2024-01-15T00:12:36;160097.98;;;3.04;100.00
46095;BME280;31832;50.746;-2.716;2024-01-15T00:15:02;160052.71;;;3.02;100.00
46095;BME280;31832;50.746;-2.716;2024-01-15T00:17:27;160034.56;;;3.16;100.00
46095;BME280;31832;50.746;-2.716;2024-01-15T00:19:52;160431.19;;;4.88;100.00
46095;BME280;31832;50.746;-2.716;2024-01-15T00:22:18;160276.28;;;4.02;100.00
46095;BME280;31832;50.746;-2.716;2024-01-15T00:24:42;160583.84;;;5.72;100.00
46095;BME280;31832;50.746;-2.716;2024-01-15T00:27:08;160614.98;;;5.65;100.00
46095;BME280;31832;50.746;-2.716;2024-01-15T00:29:33;160133.22;;;3.23;100.00
46095;BME280;31832;50.746;-2.716;2024-01-15T00:31:58;160472.94;;;5.11;100.00
46095;BME280;31832;50.746;-2.716;2024-01-15T00:34:24;160155.86;;;3.36;100.00
46095;BME280;31832;50.746;-2.716;2024-01-15T00:36:49;160584.01;;;5.72;100.00
46095;BME280;31832;50.746;-2.716;2024-01-15T00:39:15;160655.50;;;5.88;100.00
46095;BME280;31832;50.746;-2.716;2024-01-15T00:41:40;159986.15;;;2.42;100.00
46095;BME280;31832;50.746;-2.716;2024-01-15T00:44:06;160263.68;;;3.95;100.00
46095;BME280;31832;50.746;-2.716;2024-01-15T00:46:31;160380.49;;;4.60;100.00
46095;BME280;31832;50.746;-2.716;2024-01-15T00:48:57;159821.99;;;1.75;100.00
46095;BME280;31832;50.746;-2.716;2024-01-15T00:51:22;160255.55;;;3.91;100.00
46095;BME280;31832;50.746;-2.716;2024-01-15T00:53:47;160527.97;;;5.41;100.00
46095;BME280;31832;50.746;-2.716;2024-01-15T00:56:12;160446.71;;;4.72;100.00
46095;BME280;31832;50.746;-2.716;2024-01-15T00:58:38;160463.56;;;5.06;100.00
46095;BME280;31832;50.746;-2.716;2024-01-15T01:01:03;160844.06;;;6.68;100.00
46095;BME280;31832;50.746;-2.716;2024-01-15T01:03:28;160073.69;;;2.90;100.00
46095;BME280;31832;50.746;-2.716;2024-01-15T01:05:54;160299.26;;;4.15;100.00
46095;BME280;31832;50.746;-2.716;2024-01-15T01:08:19;160012.84;;;2.56;100.00
46095;BME280;31832;50.746;-2.716;2024-01-15T01:10:44;160134.46;;;3.72;100.00
46095;BME280;31832;50.746;-2.716;2024-01-15T01:13:10;160430.70;;;4.87;100.00
46095;BME280;31832;50.746;-2.716;2024-01-15T01:15:35;160596.38;;;5.79;100.00
46095;BME280;31832;50.746;-2.716;2024-01-15T01:18:00;160711.98;;;5.95;100.00
46095;BME280;31832;50.746;-2.716;2024-01-15T01:20:26;160655.92;;;5.88;100.00
46095;BME280;31832;50.746;-2.716;2024-01-15T01:22:50;160531.96;;;5.43;100.00
46095;BME280;31832;50.746;-2.716;2024-01-15T01:25:16;160154.28;;;3.11;100.00
46095;BME280;31832;50.746;-2.716;2024-01-15T01:27:41;160454.51;;;5.01;100.00
46095;BME280;31832;50.746;-2.716;2024-01-15T01:30:07;160167.80;;;3.42;100.00
46095;BME280;31832;50.746;-2.716;2024-01-15T01:32:32;160727.92;;;6.28;100.00
46095;BME280;31832;50.746;-2.716;2024-01-15T01:34:57;160614.65;;;5.65;100.00
46095;BME280;31832;50.746;-2.716;2024-01-15T01:37:22;160648.86;;;6.08;100.00
46095;BME280;31832;50.746;-2.716;2024-01-15T01:39:47;160523.99;;;5.39;100.00
46095;BME280;31832;50.746;-2.716;2024-01-15T01:42:13;160690.80;;;6.31;100.00
46095;BME280;31832;50.746;-2.716;2024-01-15T01:44:38;160832.43;;;7.09;100.00
46095;BME280;31832;50.746;-2.716;2024-01-15T01:49:29;161061.39;;;7.88;100.00
46095;BME280;31832;50.746;-2.716;2024-01-15T01:51:56;160834.00;;;6.14;100.00
46095;BME280;31832;50.746;-2.716;2024-01-15T01:54:20;161008.35;;;7.34;100.00
46095;BME280;31832;50.746;-2.716;2024-01-15T01:56:46;161146.78;;;7.87;100.00
46095;BME280;31832;50.746;-2.716;2024-01-15T01:59:10;161148.36;;;7.88;100.00
46095;BME280;31832;50.746;-2.716;2024-01-15T02:01:35;161106.45;;;7.89;100.00
46095;BME280;31832;50.746;-2.716;2024-01-15T02:04:00;160969.12;;;6.89;100.00
46095;BME280;31832;50.746;-2.716;2024-01-15T02:06:25;160813.23;;;6.03;100.00
46095;BME280;31832;50.746;-2.716;2024-01-15T02:08:51;161019.08;;;7.16;100.00
46095;BME280;31832;50.746;-2.716;2024-01-15T02:11:16;161259.63;;;8.49;100.00
46095;BME280;31832;50.746;-2.716;2024-01-15T02:13:41;161024.40;;;7.19;100.00
46095;BME280;31832;50.746;-2.716;2024-01-15T02:16:06;161270.37;;;8.31;100.00
46095;BME280;31832;50.746;-2.716;2024-01-15T02:18:39;160464.39;;;4.10;100.00
46095;BME280;31832;50.746;-2.716;2024-01-15T02:20:57;160906.71;;;7.02;100.00
46095;BME280;31832;50.746;-2.716;2024-01-15T02:25:48;161237.34;;;8.37;100.00
46095;BME280;31832;50.746;-2.716;2024-01-15T02:28:14;161284.26;;;8.39;100.00
46095;BME280;31832;50.746;-2.716;2024-01-15T02:30:39;161139.79;;;7.59;100.00
46095;BME280;31832;50.746;-2.716;2024-01-15T02:33:04;160824.12;;;6.33;100.00
46095;BME280;31832;50.746;-2.716;2024-01-15T02:35:28;161001.95;;;7.07;100.00
46095;BME280;31832;50.746;-2.716;2024-01-15T02:37:54;160876.21;;;6.38;100.00
46095;BME280;31832;50.746;-2.716;2024-01-15T02:40:19;160975.27;;;6.92;100.00
46095;BME280;31832;50.746;-2.716;2024-01-15T02:42:44;160862.17;;;6.30;100.00
46095;BME280;31832;50.746;-2.716;2024-01-15T02:45:10;161209.07;;;8.21;100.00
46095;BME280;31832;50.746;-2.716;2024-01-15T02:47:35;161049.34;;;7.57;100.00
46095;BME280;31832;50.746;-2.716;2024-01-15T02:50:00;160895.49;;;6.96;100.00
46095;BME280;31832;50.746;-2.716;2024-01-15T02:52:25;161038.11;;;7.75;100.00
46095;BME280;31832;50.746;-2.716;2024-01-15T02:54:51;160909.78;;;7.04;100.00
46095;BME280;31832;50.746;-2.716;2024-01-15T02:57:17;160835.50;;;6.87;100.00
46095;BME280;31832;50.746;-2.716;2024-01-15T02:59:42;160798.28;;;6.66;100.00
46095;BME280;31832;50.746;-2.716;2024-01-15T03:02:07;160811.07;;;6.50;100.00
46095;BME280;31832;50.746;-2.716;2024-01-15T03:04:32;160825.78;;;6.58;100.00
46095;BME280;31832;50.746;-2.716;2024-01-15T03:06:57;160872.47;;;7.07;100.00
46095;BME280;31832;50.746;-2.716;2024-01-15T03:09:23;160923.83;;;7.36;100.00
46095;BME280;31832;50.746;-2.716;2024-01-15T03:11:48;160967.79;;;7.36;100.00
46095;BME280;31832;50.746;-2.716;2024-01-15T03:14:14;161048.09;;;7.80;100.00
46095;BME280;31832;50.746;-2.716;2024-01-15T03:16:39;161045.59;;;7.79;100.00
46095;BME280;31832;50.746;-2.716;2024-01-15T03:19:05;161121.58;;;8.21;100.00
46095;BME280;31832;50.746;-2.716;2024-01-15T03:21:30;160910.78;;;7.05;100.00
46095;BME280;31832;50.746;-2.716;2024-01-15T03:23:55;160871.97;;;6.83;100.00
46095;BME280;31832;50.746;-2.716;2024-01-15T03:26:21;160807.34;;;6.24;100.00
46095;BME280;31832;50.746;-2.716;2024-01-15T03:28:46;160887.60;;;6.44;100.00
46095;BME280;31832;50.746;-2.716;2024-01-15T03:31:12;161029.97;;;7.22;100.00
46095;BME280;31832;50.746;-2.716;2024-01-15T03:33:38;161050.83;;;7.34;100.00
46095;BME280;31832;50.746;-2.716;2024-01-15T03:36:04;160684.90;;;5.80;100.00
46095;BME280;31832;50.746;-2.716;2024-01-15T03:38:29;160935.55;;;6.70;100.00
46095;BME280;31832;50.746;-2.716;2024-01-15T03:40:54;160749.52;;;5.68;100.00
46095;BME280;31832;50.746;-2.716;2024-01-15T03:43:20;160895.91;;;6.49;100.00
46095;BME280;31832;50.746;-2.716;2024-01-15T03:45:45;160724.93;;;6.02;100.00
46095;BME280;31832;50.746;-2.716;2024-01-15T03:48:11;160784.07;;;6.35;100.00
46095;BME280;31832;50.746;-2.716;2024-01-15T03:50:38;160820.96;;;6.55;100.00
46095;BME280;31832;50.746;-2.716;2024-01-15T03:53:02;160971.20;;;7.38;100.00
46095;BME280;31832;50.746;-2.716;2024-01-15T03:55:28;160756.99;;;6.20;100.00
46095;BME280;31832;50.746;-2.716;2024-01-15T03:57:53;160696.78;;;5.86;100.00
46095;BME280;31832;50.746;-2.716;2024-01-15T04:00:19;160645.95;;;5.82;100.00
46095;BME280;31832;50.746;-2.716;2024-01-15T04:02:44;160281.18;;;4.05;100.00
46095;BME280;31832;50.746;-2.716;2024-01-15T04:05:11;160644.21;;;5.57;100.00
46095;BME280;31832;50.746;-2.716;2024-01-15T04:07:35;160794.79;;;6.41;100.00
46095;BME280;31832;50.746;-2.716;2024-01-15T04:10:01;160613.15;;;5.64;100.00
46095;BME280;31832;50.746;-2.716;2024-01-15T04:12:32;160814.81;;;6.52;100.00
46095;BME280;31832;50.746;-2.716;2024-01-15T04:14:51;160812.40;;;6.50;100.00
46095;BME280;31832;50.746;-2.716;2024-01-15T04:17:17;160554.62;;;5.08;100.00
46095;BME280;31832;50.746;-2.716;2024-01-15T04:19:44;160419.24;;;4.57;100.00
46095;BME280;31832;50.746;-2.716;2024-01-15T04:22:08;160516.85;;;4.87;100.00
46095;BME280;31832;50.746;-2.716;2024-01-15T04:24:34;160570.56;;;5.41;100.00
46095;BME280;31832;50.746;-2.716;2024-01-15T04:26:59;160198.15;;;3.59;100.00
46095;BME280;31832;50.746;-2.716;2024-01-15T04:29:25;159869.88;;;2.25;100.00
46095;BME280;31832;50.746;-2.716;2024-01-15T04:31:50;160138.86;;;3.26;100.00
46095;BME280;31832;50.746;-2.716;2024-01-15T04:34:15;160064.32;;;2.85;100.00
46095;BME280;31832;50.746;-2.716;2024-01-15T04:36:41;160093.34;;;3.49;100.00
46095;BME280;31832;50.746;-2.716;2024-01-15T04:39:06;159707.52;;;1.35;100.00
46095;BME280;31832;50.746;-2.716;2024-01-15T04:41:31;159473.06;;;0.53;100.00
46095;BME280;31832;50.746;-2.716;2024-01-15T04:43:57;159271.84;;;-0.58;100.00
46095;BME280;31832;50.746;-2.716;2024-01-15T04:46:22;159451.79;;;0.42;100.00
46095;BME280;31832;50.746;-2.716;2024-01-15T04:48:47;159493.42;;;0.65;100.00
46095;BME280;31832;50.746;-2.716;2024-01-15T04:51:13;159648.39;;;1.50;100.00
46095;BME280;31832;50.746;-2.716;2024-01-15T04:53:38;159537.70;;;0.65;100.00
46095;BME280;31832;50.746;-2.716;2024-01-15T04:56:04;159679.53;;;1.68;100.00
46095;BME280;31832;50.746;-2.716;2024-01-15T04:58:29;159457.00;;;0.44;100.00
46095;BME280;31832;50.746;-2.716;2024-01-15T05:00:54;159482.24;;;1.06;100.00
46095;BME280;31832;50.746;-2.716;2024-01-15T05:03:19;159183.43;;;-0.59;100.00
46095;BME280;31832;50.746;-2.716;2024-01-15T05:05:45;159193.52;;;-0.54;100.00
46095;BME280;31832;50.746;-2.716;2024-01-15T05:08:10;159102.66;;;-1.04;100.00
46095;BME280;31832;50.746;-2.716;2024-01-15T05:10:35;159021.65;;;-1.49;100.00
46095;BME280;31832;50.746;-2.716;2024-01-15T05:13:01;158856.31;;;-2.17;100.00
46095;BME280;31832;50.746;-2.716;2024-01-15T05:15:26;159163.92;;;-0.22;100.00
46095;BME280;31832;50.746;-2.716;2024-01-15T05:17:52;159412.15;;;0.67;100.00
46095;BME280;31832;50.746;-2.716;2024-01-15T05:20:17;159667.19;;;1.61;100.00
46095;BME280;31832;50.746;-2.716;2024-01-15T05:22:42;159332.81;;;0.24;100.00
46095;BME280;31832;50.746;-2.716;2024-01-15T05:25:07;159455.02;;;0.91;100.00
46095;BME280;31832;50.746;-2.716;2024-01-15T05:27:33;159457.66;;;0.45;100.00
46095;BME280;31832;50.746;-2.716;2024-01-15T05:29:59;159539.19;;;0.90;100.00
46095;BME280;31832;50.746;-2.716;2024-01-15T05:32:24;158689.81;;;-2.85;100.00
46095;BME280;31832;50.746;-2.716;2024-01-15T05:34:49;158724.74;;;-2.42;100.00
46095;BME280;31832;50.746;-2.716;2024-01-15T05:37:15;158485.36;;;-3.51;100.00
46095;BME280;31832;50.746;-2.716;2024-01-15T05:39:40;158590.58;;;-2.93;100.00
46095;BME280;31832;50.746;-2.716;2024-01-15T05:42:05;158902.08;;;-1.20;100.00
46095;BME280;31832;50.746;-2.716;2024-01-15T05:44:31;158526.46;;;-3.28;100.00
46095;BME280;31832;50.746;-2.716;2024-01-15T05:46:56;158828.22;;;-1.61;100.00
46095;BME280;31832;50.746;-2.716;2024-01-15T05:49:21;159059.34;;;-0.80;100.00
46095;BME280;31832;50.746;-2.716;2024-01-15T05:51:47;159181.37;;;-0.13;100.00
46095;BME280;31832;50.746;-2.716;2024-01-15T05:54:12;159246.70;;;-0.24;100.00
46095;BME280;31832;50.746;-2.716;2024-01-15T05:56:37;159171.86;;;-0.18;100.00
46095;BME280;31832;50.746;-2.716;2024-01-15T05:59:03;159161.03;;;-0.24;100.00
46095;BME280;31832;50.746;-2.716;2024-01-15T06:01:28;158987.02;;;-1.20;100.00
46095;BME280;31832;50.746;-2.716;2024-01-15T06:03:53;159002.64;;;-1.36;100.00
46095;BME280;31832;50.746;-2.716;2024-01-15T06:06:20;158962.15;;;-1.34;100.00
46095;BME280;31832;50.746;-2.716;2024-01-15T06:08:44;159293.18;;;0.25;100.00
46095;BME280;31832;50.746;-2.716;2024-01-15T06:11:09;159246.86;;;0.24;100.00
46095;BME280;31832;50.746;-2.716;2024-01-15T06:13:35;159289.79;;;0.24;100.00
46095;BME280;31832;50.746;-2.716;2024-01-15T06:16:00;159000.00;;;-1.13;100.00
46095;BME280;31832;50.746;-2.716;2024-01-15T06:18:25;158995.62;;;-1.16;100.00
46095;BME280;31832;50.746;-2.716;2024-01-15T06:20:50;159159.87;;;-0.25;100.00
46095;BME280;31832;50.746;-2.716;2024-01-15T06:23:16;159231.65;;;0.15;100.00
46095;BME280;31832;50.746;-2.716;2024-01-15T06:25:41;158862.42;;;-1.42;100.00
46095;BME280;31832;50.746;-2.716;2024-01-15T06:28:07;159019.17;;;-1.03;100.00
46095;BME280;31832;50.746;-2.716;2024-01-15T06:30:32;159342.15;;;0.77;100.00
46095;BME280;31832;50.746;-2.716;2024-01-15T06:32:58;158942.15;;;-1.45;100.00
46095;BME280;31832;50.746;-2.716;2024-01-15T06:35:23;158950.41;;;-1.17;100.00
46095;BME280;31832;50.746;-2.716;2024-01-15T06:37:48;159162.35;;;-0.23;100.00
46095;BME280;31832;50.746;-2.716;2024-01-15T06:40:14;159070.83;;;-0.74;100.00
46095;BME280;31832;50.746;-2.716;2024-01-15T06:42:39;159304.27;;;0.56;100.00
46095;BME280;31832;50.746;-2.716;2024-01-15T06:45:05;159451.29;;;1.37;100.00
46095;BME280;31832;50.746;-2.716;2024-01-15T06:47:29;159424.31;;;0.98;100.00
46095;BME280;31832;50.746;-2.716;2024-01-15T06:49:54;159229.50;;;0.14;100.00
46095;BME280;31832;50.746;-2.716;2024-01-15T06:52:20;159112.16;;;-0.75;100.00
46095;BME280;31832;50.746;-2.716;2024-01-15T06:54:46;158926.20;;;-1.54;100.00
46095;BME280;31832;50.746;-2.716;2024-01-15T06:57:12;159153.09;;;-0.28;100.00
46095;BME280;31832;50.746;-2.716;2024-01-15T06:59:37;159094.72;;;-0.61;100.00
46095;BME280;31832;50.746;-2.716;2024-01-15T07:02:02;158988.84;;;-0.95;100.00
46095;BME280;31832;50.746;-2.716;2024-01-15T07:04:28;158993.05;;;-0.93;100.00
46095;BME280;31832;50.746;-2.716;2024-01-15T07:06:53;159318.25;;;0.63;100.00
46095;BME280;31832;50.746;-2.716;2024-01-15T07:09:19;159453.20;;;1.14;100.00
46095;BME280;31832;50.746;-2.716;2024-01-15T07:11:45;159314.28;;;0.61;100.00
46095;BME280;31832;50.746;-2.716;2024-01-15T07:14:09;159109.44;;;-0.52;100.00
46095;BME280;31832;50.746;-2.716;2024-01-15T07:16:35;159262.16;;;-0.16;100.00
46095;BME280;31832;50.746;-2.716;2024-01-15T07:19:00;159518.91;;;1.74;100.00
46095;BME280;31832;50.746;-2.716;2024-01-15T07:21:25;159282.51;;;0.20;100.00
46095;BME280;31832;50.746;-2.716;2024-01-15T07:23:50;158903.32;;;-1.43;100.00
46095;BME280;31832;50.746;-2.716;2024-01-15T07:26:16;159198.24;;;-0.03;100.00
46095;BME280;31832;50.746;-2.716;2024-01-15T07:28:41;159260.18;;;0.07;100.00
46095;BME280;31832;50.746;-2.716;2024-01-15T07:31:07;159391.38;;;0.56;100.00
46095;BME280;31832;50.746;-2.716;2024-01-15T07:33:32;159304.18;;;0.08;100.00
46095;BME280;31832;50.746;-2.716;2024-01-15T07:35:57;159075.62;;;-0.95;100.00
46095;BME280;31832;50.746;-2.716;2024-01-15T07:38:22;159409.09;;;0.90;100.00
46095;BME280;31832;50.746;-2.716;2024-01-15T07:40:48;159352.91;;;0.35;100.00
46095;BME280;31832;50.746;-2.716;2024-01-15T07:43:14;159292.52;;;0.01;100.00
46095;BME280;31832;50.746;-2.716;2024-01-15T07:45:38;159371.94;;;0.45;100.00
46095;BME280;31832;50.746;-2.716;2024-01-15T07:48:05;159143.66;;;-0.57;100.00
46095;BME280;31832;50.746;-2.716;2024-01-15T07:50:29;159406.36;;;0.88;100.00
46095;BME280;31832;50.746;-2.716;2024-01-15T07:52:55;159287.97;;;0.23;100.00
46095;BME280;31832;50.746;-2.716;2024-01-15T07:55:21;159110.76;;;-0.76;100.00
46095;BME280;31832;50.746;-2.716;2024-01-15T07:57:45;159155.07;;;-0.27;100.00
46095;BME280;31832;50.746;-2.716;2024-01-15T08:00:11;159116.13;;;-0.49;100.00
46095;BME280;31832;50.746;-2.716;2024-01-15T08:02:36;159049.92;;;-0.85;100.00
46095;BME280;31832;50.746;-2.716;2024-01-15T08:05:01;159214.61;;;0.06;100.00
46095;BME280;31832;50.746;-2.716;2024-01-15T08:07:26;159261.26;;;0.32;100.00
46095;BME280;31832;50.746;-2.716;2024-01-15T08:09:53;159304.27;;;0.08;100.00
46095;BME280;31832;50.746;-2.716;2024-01-15T08:12:18;158809.39;;;-2.19;100.00
46095;BME280;31832;50.746;-2.716;2024-01-15T08:14:43;158927.69;;;-1.29;100.00
46095;BME280;31832;50.746;-2.716;2024-01-15T08:17:09;159040.41;;;-0.67;100.00
46095;BME280;31832;50.746;-2.716;2024-01-15T08:19:34;159154.91;;;-0.03;100.00
46095;BME280;31832;50.746;-2.716;2024-01-15T08:22:05;159373.84;;;0.70;100.00
46095;BME280;31832;50.746;-2.716;2024-01-15T08:24:25;159310.55;;;0.59;100.00
46095;BME280;31832;50.746;-2.716;2024-01-15T08:26:50;159284.66;;;-0.03;100.00
46095;BME280;31832;50.746;-2.716;2024-01-15T08:29:15;159036.53;;;-1.17;100.00
46095;BME280;31832;50.746;-2.716;2024-01-15T08:31:40;159525.04;;;1.06;100.00
46095;BME280;31832;50.746;-2.716;2024-01-15T08:34:05;159641.44;;;1.71;100.00
46095;BME280;31832;50.746;-2.716;2024-01-15T08:36:31;159761.44;;;2.13;100.00
46095;BME280;31832;50.746;-2.716;2024-01-15T08:38:56;159664.79;;;1.83;100.00
46095;BME280;31832;50.746;-2.716;2024-01-15T08:41:21;159787.94;;;2.28;100.00
46095;BME280;31832;50.746;-2.716;2024-01-15T08:43:47;159163.18;;;-1.18;100.00
46095;BME280;31832;50.746;-2.716;2024-01-15T08:46:12;159845.77;;;2.60;100.00
46095;BME280;31832;50.746;-2.716;2024-01-15T08:48:37;159880.32;;;2.79;100.00
46095;BME280;31832;50.746;-2.716;2024-01-15T08:51:03;159931.45;;;3.07;100.00
46095;BME280;31832;50.746;-2.716;2024-01-15T08:53:28;159900.21;;;2.90;100.00
46095;BME280;31832;50.746;-2.716;2024-01-15T08:55:53;159867.89;;;2.72;100.00
46095;BME280;31832;50.746;-2.716;2024-01-15T08:58:19;159636.14;;;1.41;100.00
46095;BME280;31832;50.746;-2.716;2024-01-15T09:00:44;159766.24;;;2.64;100.00
46095;BME280;31832;50.746;-2.716;2024-01-15T09:03:09;159839.64;;;2.56;100.00
46095;BME280;31832;50.746;-2.716;2024-01-15T09:05:35;159969.90;;;3.28;100.00
46095;BME280;31832;50.746;-2.716;2024-01-15T09:07:59;160025.77;;;3.35;100.00
46095;BME280;31832;50.746;-2.716;2024-01-15T09:10:26;160193.34;;;4.04;100.00
46095;BME280;31832;50.746;-2.716;2024-01-15T09:12:52;160118.04;;;3.86;100.00
46095;BME280;31832;50.746;-2.716;2024-01-15T09:15:17;160160.50;;;3.86;100.00
46095;BME280;31832;50.746;-2.716;2024-01-15T09:17:43;160395.34;;;5.16;100.00
46095;BME280;31832;50.746;-2.716;2024-01-15T09:20:09;160359.08;;;4.48;100.00
46095;BME280;31832;50.746;-2.716;2024-01-15T09:22:34;160451.28;;;4.99;100.00
46095;BME280;31832;50.746;-2.716;2024-01-15T09:24:59;159954.16;;;2.72;100.00
46095;BME280;31832;50.746;-2.716;2024-01-15T09:27:25;160096.49;;;3.27;100.00
46095;BME280;31832;50.746;-2.716;2024-01-15T09:29:50;160275.95;;;4.50;100.00
46095;BME280;31832;50.746;-2.716;2024-01-15T09:32:16;160411.03;;;5.00;100.00
46095;BME280;31832;50.746;-2.716;2024-01-15T09:34:41;160492.61;;;5.22;100.00
46095;BME280;31832;50.746;-2.716;2024-01-15T09:37:07;160527.64;;;5.41;100.00
46095;BME280;31832;50.746;-2.716;2024-01-15T09:39:32;160558.69;;;5.82;100.00
46095;BME280;31832;50.746;-2.716;2024-01-15T09:41:58;160520.92;;;5.37;100.00
46095;BME280;31832;50.746;-2.716;2024-01-15T09:44:23;160629.35;;;5.97;100.00
46095;BME280;31832;50.746;-2.716;2024-01-15T09:46:49;160611.33;;;5.87;100.00
46095;BME280;31832;50.746;-2.716;2024-01-15T09:49:15;160624.28;;;5.70;100.00
46095;BME280;31832;50.746;-2.716;2024-01-15T09:51:41;160663.47;;;6.16;100.00
46095;BME280;31832;50.746;-2.716;2024-01-15T09:54:06;160657.50;;;6.13;100.00
46095;BME280;31832;50.746;-2.716;2024-01-15T09:56:32;160635.49;;;6.00;100.00
46095;BME280;31832;50.746;-2.716;2024-01-15T09:58:57;160685.32;;;6.28;100.00
46095;BME280;31832;50.746;-2.716;2024-01-15T10:01:24;160663.72;;;6.16;100.00
46095;BME280;31832;50.746;-2.716;2024-01-15T10:03:49;160610.50;;;5.87;100.00
46095;BME280;31832;50.746;-2.716;2024-01-15T10:06:16;160632.33;;;5.75;100.00
46095;BME280;31832;50.746;-2.716;2024-01-15T10:08:40;160740.88;;;6.35;100.00
46095;BME280;31832;50.746;-2.716;2024-01-15T10:11:05;160754.17;;;6.18;100.00
46095;BME280;31832;50.746;-2.716;2024-01-15T10:13:30;160636.32;;;5.53;100.00
46095;BME280;31832;50.746;-2.716;2024-01-15T10:15:56;160624.53;;;5.71;100.00
46095;BME280;31832;50.746;-2.716;2024-01-15T10:18:20;160524.82;;;5.39;100.00
46095;BME280;31832;50.746;-2.716;2024-01-15T10:20:47;160398.16;;;4.69;100.00
46095;BME280;31832;50.746;-2.716;2024-01-15T10:23:11;160318.18;;;4.49;100.00
46095;BME280;31832;50.746;-2.716;2024-01-15T10:25:37;160063.41;;;3.56;100.00
46095;BME280;31832;50.746;-2.716;2024-01-15T10:28:03;160146.57;;;4.02;100.00
46095;BME280;31832;50.746;-2.716;2024-01-15T10:30:27;160111.58;;;4.07;100.00
46095;BME280;31832;50.746;-2.716;2024-01-15T10:32:58;160295.86;;;4.61;100.00
46095;BME280;31832;50.746;-2.716;2024-01-15T10:35:21;160218.80;;;4.42;100.00
46095;BME280;31832;50.746;-2.716;2024-01-15T10:37:43;160140.68;;;4.23;100.00
46095;BME280;31832;50.746;-2.716;2024-01-15T10:40:08;160223.70;;;4.21;100.00
46095;BME280;31832;50.746;-2.716;2024-01-15T10:42:34;160209.93;;;4.13;100.00
46095;BME280;31832;50.746;-2.716;2024-01-15T10:44:59;159867.15;;;2.72;100.00
46095;BME280;31832;50.746;-2.716;2024-01-15T10:47:24;160005.21;;;3.48;100.00
46095;BME280;31832;50.746;-2.716;2024-01-15T10:49:49;160112.90;;;4.07;100.00
46095;BME280;31832;50.746;-2.716;2024-01-15T10:52:15;160146.98;;;4.02;100.00
46095;BME280;31832;50.746;-2.716;2024-01-15T10:54:41;160162.82;;;3.87;100.00
46095;BME280;31832;50.746;-2.716;2024-01-15T10:57:06;160239.79;;;4.30;100.00
46095;BME280;31832;50.746;-2.716;2024-01-15T10:59:32;160428.70;;;4.86;100.00
46095;BME280;31832;50.746;-2.716;2024-01-15T11:01:57;160371.69;;;4.55;100.00
46095;BME280;31832;50.746;-2.716;2024-01-15T11:04:22;160001.32;;;2.74;100.00
46095;BME280;31832;50.746;-2.716;2024-01-15T11:06:51;160210.34;;;3.90;100.00
46095;BME280;31832;50.746;-2.716;2024-01-15T11:09:13;159697.75;;;1.54;100.00
46095;BME280;31832;50.746;-2.716;2024-01-15T11:11:41;159901.86;;;2.67;100.00
46095;BME280;31832;50.746;-2.716;2024-01-15T11:14:03;159641.35;;;1.70;100.00
46095;BME280;31832;50.746;-2.716;2024-01-15T11:19:02;159379.63;;;0.49;100.00
46095;BME280;31832;50.746;-2.716;2024-01-15T11:21:21;159528.51;;;1.32;100.00
46095;BME280;31832;50.746;-2.716;2024-01-15T11:23:45;159677.21;;;2.14;100.00
46095;BME280;31832;50.746;-2.716;2024-01-15T11:28:48;159551.44;;;1.45;100.00
46095;BME280;31832;50.746;-2.716;2024-01-15T11:33:34;159833.51;;;2.53;100.00
46095;BME280;31832;50.746;-2.716;2024-01-15T11:35:51;159514.69;;;1.24;100.00
46095;BME280;31832;50.746;-2.716;2024-01-15T11:38:27;159415.46;;;0.69;100.00
46095;BME280;31832;50.746;-2.716;2024-01-15T11:40:42;159369.21;;;0.68;100.00
46095;BME280;31832;50.746;-2.716;2024-01-15T11:43:07;159659.90;;;2.05;100.00
46095;BME280;31832;50.746;-2.716;2024-01-15T11:45:32;159401.56;;;1.09;100.00
46095;BME280;31832;50.746;-2.716;2024-01-15T11:48:10;159376.99;;;0.48;100.00
46095;BME280;31832;50.746;-2.716;2024-01-15T11:50:22;159479.10;;;1.02;100.00
46095;BME280;31832;50.746;-2.716;2024-01-15T11:52:55;159606.91;;;1.75;100.00
46095;BME280;31832;50.746;-2.716;2024-01-15T11:55:19;159504.51;;;1.19;100.00
46095;BME280;31832;50.746;-2.716;2024-01-15T11:57:41;159866.07;;;2.95;100.00
46095;BME280;31832;50.746;-2.716;2024-01-15T12:00:05;159779.99;;;2.23;100.00
46095;BME280;31832;50.746;-2.716;2024-01-15T12:02:29;159855.38;;;2.41;100.00
46095;BME280;31832;50.746;-2.716;2024-01-15T12:04:54;159659.32;;;1.80;100.00
46095;BME280;31832;50.746;-2.716;2024-01-15T12:07:19;159740.48;;;1.78;100.00
46095;BME280;31832;50.746;-2.716;2024-01-15T12:09:44;159741.81;;;2.02;100.00
46095;BME280;31832;50.746;-2.716;2024-01-15T12:12:21;159487.95;;;1.09;100.00
46095;BME280;31832;50.746;-2.716;2024-01-15T12:14:35;159350.18;;;0.57;100.00
46095;BME280;31832;50.746;-2.716;2024-01-15T12:17:01;159638.87;;;1.93;100.00
46095;BME280;31832;50.746;-2.716;2024-01-15T12:19:26;159560.63;;;1.50;100.00
46095;BME280;31832;50.746;-2.716;2024-01-15T12:21:51;159880.65;;;3.03;100.00
46095;BME280;31832;50.746;-2.716;2024-01-15T12:24:17;159843.78;;;2.83;100.00
46095;BME280;31832;50.746;-2.716;2024-01-15T12:26:42;159934.60;;;3.09;100.00
46095;BME280;31832;50.746;-2.716;2024-01-15T12:29:12;159533.15;;;1.34;100.00
46095;BME280;31832;50.746;-2.716;2024-01-15T12:31:33;159382.45;;;0.51;100.00
46095;BME280;31832;50.746;-2.716;2024-01-15T12:33:58;159381.87;;;0.51;100.00
46095;BME280;31832;50.746;-2.716;2024-01-15T12:36:23;159434.58;;;1.04;100.00
46095;BME280;31832;50.746;-2.716;2024-01-15T12:38:53;159176.57;;;-0.15;100.00